Time;durP1;ratioP1;P1;durP2;ratioP2;P2;SDS_P1;SDS_P2;PMS_P1;PMS_P2;Temp;Humidity;BMP_temperature;BMP_pressure;BME280_temperature;BME280_humidity;BME280_pressure;Samples;Min_cycle;Max_cycle;Signal;HPM_P1;HPM_P2
2022/01/11 00:02:18;;;;;;;4.27;4.00;;;;;;;0.86;91.91;102689.13;5095705;28;20867;-74
2022/01/11 00:04:45;;;;;;;35.80;21.00;;;;;;;0.86;91.56;102694.47;5096228;28;20461;-74
2022/01/11 00:07:14;;;;;;;0.40;0.30;;;;;;;0.80;92.09;102688.03;5095982;28;20496;-74
2022/01/11 00:09:42;;;;;;;0.63;0.63;;;;;;;0.81;91.76;102691.53;5095720;28;20444;-74
2022/01/11 00:12:10;;;;;;;0.97;0.97;;;;;;;0.78;91.75;102691.88;5095788;28;20471;-74
2022/01/11 00:14:39;;;;;;;0.40;0.30;;;;;;;0.78;91.90;102686.53;5095458;28;20941;-74
2022/01/11 00:17:05;;;;;;;0.40;0.30;;;;;;;0.78;91.80;102678.53;5095735;28;20441;-74
2022/01/11 00:19:33;;;;;;;2.93;2.83;;;;;;;0.71;91.56;102683.78;5095693;28;20444;-73
2022/01/11 00:22:02;;;;;;;0.40;0.30;;;;;;;0.62;92.28;102677.72;5095625;28;20462;-74
2022/01/11 00:24:29;;;;;;;0.40;0.30;;;;;;;0.51;93.09;102670.16;5095300;28;20895;-74
2022/01/11 00:26:57;;;;;;;1.90;1.80;;;;;;;0.57;92.80;102668.59;5095505;28;20563;-74
2022/01/11 00:29:24;;;;;;;0.40;0.30;;;;;;;0.54;91.98;102674.31;5095508;28;20833;-74
2022/01/11 00:31:52;;;;;;;0.50;0.47;;;;;;;0.54;91.98;102675.13;5095387;28;20493;-74
2022/01/11 00:34:21;;;;;;;0.40;0.30;;;;;;;0.49;92.09;102674.84;5094810;28;20901;-74
2022/01/11 00:36:47;;;;;;;14.40;13.53;;;;;;;0.50;92.79;102677.34;5095464;28;20448;-73
2022/01/11 00:39:14;;;;;;;0.80;0.80;;;;;;;0.54;92.33;102682.31;5095293;28;20444;-74
2022/01/11 00:41:42;;;;;;;0.40;0.30;;;;;;;0.45;93.22;102692.22;5095226;28;20437;-74
2022/01/11 00:44:09;;;;;;;0.50;0.33;;;;;;;0.46;93.05;102693.88;5095287;28;20440;-74
2022/01/11 00:46:36;;;;;;;0.40;0.30;;;;;;;0.46;92.69;102693.88;5095200;28;20436;-74
2022/01/11 00:49:04;;;;;;;0.40;0.30;;;;;;;0.44;93.17;102695.88;5094746;28;20484;-74
2022/01/11 00:51:30;;;;;;;0.97;0.97;;;;;;;0.42;93.85;102700.56;5095034;28;20440;-73
2022/01/11 00:53:57;;;;;;;2.00;1.90;;;;;;;0.37;94.86;102702.97;5094995;28;20490;-74
2022/01/11 00:56:24;;;;;;;2.10;2.00;;;;;;;0.39;94.07;102706.25;5094983;28;20456;-74
2022/01/11 00:58:50;;;;;;;0.40;0.30;;;;;;;0.38;94.17;102709.94;5094927;28;20925;-74
2022/01/11 01:01:17;;;;;;;2.67;2.37;;;;;;;0.46;94.02;102709.88;5094855;28;20824;-75
2022/01/11 01:03:43;;;;;;;1.90;1.80;;;;;;;0.45;93.66;102719.72;5094478;28;20468;-74
2022/01/11 01:06:11;;;;;;;0.60;0.30;;;;;;;0.41;93.61;102733.56;5094852;28;20448;-74
2022/01/11 01:08:38;;;;;;;15.90;15.07;;;;;;;0.40;93.56;102729.22;5094684;28;20497;-72
2022/01/11 01:11:04;;;;;;;49.27;36.17;;;;;;;0.44;93.05;102727.88;5094916;28;20443;-73
2022/01/11 01:13:31;;;;;;;0.50;0.30;;;;;;;0.35;93.73;102734.28;5094884;28;20475;-72
2022/01/11 01:15:58;;;;;;;0.77;0.77;;;;;;;0.37;94.03;102737.59;5094677;28;20437;-73
2022/01/11 01:18:29;;;;;;;0.40;0.30;;;;;;;0.36;93.71;102735.97;5094593;28;20435;-73
2022/01/11 01:20:57;;;;;;;10.73;9.73;;;;;;;0.41;93.45;102738.91;5094552;28;20440;-72
2022/01/11 01:23:25;;;;;;;56.20;51.47;;;;;;;0.42;92.82;102740.56;5094379;28;20456;-72
2022/01/11 01:25:52;;;;;;;0.50;0.40;;;;;;;0.44;93.10;102742.06;5094396;28;20448;-73
2022/01/11 01:28:19;;;;;;;0.50;0.40;;;;;;;0.47;93.32;102738.19;5094092;28;20993;-73
2022/01/11 01:30:46;;;;;;;0.40;0.30;;;;;;;0.46;93.30;102744.53;5094362;28;20436;-73
2022/01/11 01:33:14;;;;;;;0.50;0.30;;;;;;;0.44;93.24;102746.53;5094201;28;20472;-73
2022/01/11 01:35:43;;;;;;;0.40;0.30;;;;;;;0.47;93.32;102752.34;5094239;28;20448;-73
2022/01/11 01:38:10;;;;;;;0.40;0.30;;;;;;;0.47;92.99;102751.50;5094128;28;20459;-73
2022/01/11 01:40:43;;;;;;;0.53;0.53;;;;;;;0.45;93.49;102757.03;5094113;28;20447;-72
2022/01/11 01:43:12;;;;;;;22.20;20.67;;;;;;;0.39;93.99;102756.91;5094058;28;20464;-72
2022/01/11 01:45:39;;;;;;;0.40;0.40;;;;;;;0.46;93.99;102766.69;5093323;28;20479;-72
2022/01/11 01:48:07;;;;;;;0.40;0.30;;;;;;;0.50;94.32;102770.63;5093917;28;20480;-72
2022/01/11 01:50:34;;;;;;;0.40;0.30;;;;;;;0.45;94.01;102767.69;5093921;28;20444;-72
2022/01/11 01:53:04;;;;;;;12.43;11.70;;;;;;;0.40;94.83;102763.88;5093534;28;20977;-72
2022/01/11 01:55:31;;;;;;;1.03;1.03;;;;;;;0.31;95.51;102768.47;5093569;28;20437;-72
2022/01/11 01:57:59;;;;;;;0.40;0.30;;;;;;;0.33;95.47;102773.63;5093818;28;20440;-72
2022/01/11 02:00:28;;;;;;;0.40;0.30;;;;;;;0.33;95.37;102779.78;5093844;28;20486;-72
2022/01/11 02:03:03;;;;;;;0.40;0.30;;;;;;;0.43;94.65;102774.19;5093225;28;20908;-72
2022/01/11 02:05:30;;;;;;;55.50;33.90;;;;;;;0.44;94.84;102775.84;5093739;28;20432;-72
2022/01/11 02:07:56;;;;;;;1.37;1.27;;;;;;;0.48;94.88;102780.63;5093684;28;20480;-72
2022/01/11 02:10:23;;;;;;;20.00;18.17;;;;;;;0.46;94.60;102779.19;5093582;28;20444;-72
2022/01/11 02:12:49;;;;;;;0.40;0.30;;;;;;;0.36;94.34;102786.59;5093570;28;20475;-72
2022/01/11 02:15:17;;;;;;;2.10;2.00;;;;;;;0.18;93.71;102793.06;5093595;28;20493;-72
2022/01/11 02:17:45;;;;;;;0.83;0.83;;;;;;;0.20;93.82;102790.19;5093542;28;20448;-72
2022/01/11 02:20:13;;;;;;;1.13;1.13;;;;;;;0.19;93.95;102784.03;5093614;28;20540;-72
2022/01/11 02:22:40;;;;;;;0.40;0.30;;;;;;;0.17;94.14;102795.88;5093425;28;20514;-72
2022/01/11 02:25:07;;;;;;;7.13;6.80;;;;;;;0.19;93.98;102799.22;5093459;28;20452;-71
2022/01/11 02:27:33;;;;;;;0.50;0.30;;;;;;;0.17;93.83;102794.03;5093362;28;20480;-72
2022/01/11 02:30:00;;;;;;;2.50;2.40;;;;;;;0.11;93.64;102800.09;5093402;28;20467;-72
2022/01/11 02:32:27;;;;;;;0.40;0.30;;;;;;;0.12;93.86;102806.25;5093095;28;20459;-73
2022/01/11 02:34:53;;;;;;;0.40;0.30;;;;;;;0.13;94.12;102816.72;5093409;28;20440;-72
2022/01/11 02:37:21;;;;;;;0.40;0.30;;;;;;;0.11;94.33;102816.06;5093344;28;20490;-72
2022/01/11 02:39:48;;;;;;;0.40;0.30;;;;;;;0.12;94.19;102817.72;5093259;28;20449;-72
2022/01/11 02:42:14;;;;;;;1.57;1.50;;;;;;;0.19;94.07;102823.19;5093209;28;20471;-72
2022/01/11 02:44:41;;;;;;;0.40;0.30;;;;;;;0.20;93.93;102816.84;5093238;28;20436;-72
2022/01/11 02:47:07;;;;;;;0.50;0.40;;;;;;;0.15;94.33;102819.22;5093316;28;20451;-72
2022/01/11 02:49:34;;;;;;;0.40;0.30;;;;;;;0.15;94.14;102825.38;5092826;28;20845;-73
2022/01/11 02:52:00;;;;;;;0.73;0.73;;;;;;;0.06;94.34;102821.09;5093236;28;20448;-73
2022/01/11 02:54:28;;;;;;;35.20;20.70;;;;;;;0.08;94.08;102828.91;5093218;28;20440;-73
2022/01/11 02:56:54;;;;;;;0.40;0.30;;;;;;;0.13;93.81;102822.03;5093908;28;20441;-73
2022/01/11 02:59:21;;;;;;;1.80;1.70;;;;;;;0.03;94.79;102816.13;5096925;28;20933;-73
2022/01/11 03:01:47;;;;;;;1.33;1.33;;;;;;;0.07;95.05;102825.41;5097002;28;20444;-73
2022/01/11 03:04:14;;;;;;;0.50;0.40;;;;;;;0.12;94.63;102836.38;5097256;28;20420;-73
2022/01/11 03:06:40;;;;;;;7.67;7.23;;;;;;;0.08;94.12;102832.41;5097223;28;20451;-73
2022/01/11 03:09:07;;;;;;;0.40;0.30;;;;;;;0.10;95.16;102833.06;5097047;28;20483;-70
2022/01/11 03:11:35;;;;;;;1.07;1.07;;;;;;;0.10;95.29;102834.91;5097025;28;20437;-70
2022/01/11 03:14:03;;;;;;;0.40;0.40;;;;;;;0.09;95.48;102838.56;5096899;28;20460;-71
2022/01/11 03:16:29;;;;;;;4.83;4.43;;;;;;;0.12;94.89;102848.88;5096788;28;20467;-70
2022/01/11 03:18:56;;;;;;;0.40;0.30;;;;;;;0.10;94.41;102843.72;5096983;28;20447;-72
2022/01/11 03:21:22;;;;;;;0.50;0.30;;;;;;;0.04;94.58;102847.06;5096923;28;20436;-72
2022/01/11 03:23:49;;;;;;;0.40;0.30;;;;;;;0.09;94.59;102844.75;5096828;28;20460;-72
2022/01/11 03:26:15;;;;;;;0.40;0.30;;;;;;;0.02;94.24;102849.09;5096929;28;20485;-72
2022/01/11 03:28:43;;;;;;;0.83;0.70;;;;;;;-0.02;93.95;102853.09;5096639;28;20830;-72
2022/01/11 03:31:10;;;;;;;0.40;0.30;;;;;;;-0.07;94.55;102860.78;5096829;28;20440;-73
2022/01/11 03:33:36;;;;;;;2.00;1.90;;;;;;;-0.06;94.38;102867.78;5096748;28;20463;-72
2022/01/11 03:36:03;;;;;;;0.40;0.30;;;;;;;-0.04;94.85;102865.78;5096264;28;20819;-72
2022/01/11 03:38:31;;;;;;;1.73;1.63;;;;;;;-0.07;95.36;102869.63;5096509;28;20437;-73
2022/01/11 03:40:58;;;;;;;2.63;2.53;;;;;;;-0.05;95.02;102872.09;5096522;28;20444;-72
2022/01/11 03:43:26;;;;;;;0.50;0.30;;;;;;;-0.13;95.30;102872.97;5096403;28;20463;-73
2022/01/11 03:45:53;;;;;;;3.80;3.60;;;;;;;-0.04;95.79;102877.28;5096378;28;20473;-73
2022/01/11 03:48:20;;;;;;;0.40;0.30;;;;;;;-0.02;95.41;102882.41;5095945;28;21058;-72
2022/01/11 03:50:52;;;;;;;0.90;0.90;;;;;;;-0.04;95.23;102879.94;5096033;28;20980;-72
2022/01/11 03:53:19;;;;;;;0.40;0.30;;;;;;;0.03;94.93;102879.22;5095883;28;20464;-73
2022/01/11 03:58:29;;;;;;;73.20;28.30;;;;;;;-0.12;94.63;102885.28;5086993;28;20877;-73
2022/01/11 04:00:57;;;;;;;0.40;0.30;;;;;;;-0.12;94.20;102885.28;5095786;28;20815;-73
2022/01/11 04:03:24;;;;;;;24.80;22.57;;;;;;;-0.20;95.52;102889.81;5095656;28;20484;-73
2022/01/11 04:05:51;;;;;;;0.60;0.60;;;;;;;-0.18;96.06;102887.81;5095983;28;20799;-73
2022/01/11 04:08:17;;;;;;;0.50;0.40;;;;;;;-0.18;95.99;102877.97;5095162;28;20484;-73
2022/01/11 04:10:44;;;;;;;1.73;1.63;;;;;;;-0.26;96.63;102878.84;5095393;28;20938;-73
2022/01/11 04:13:10;;;;;;;0.40;0.30;;;;;;;-0.18;96.67;102885.13;5095851;28;20468;-73
2022/01/11 04:15:37;;;;;;;0.40;0.30;;;;;;;-0.15;96.28;102884.81;5095796;28;20489;-73
2022/01/11 04:18:05;;;;;;;0.40;0.30;;;;;;;-0.13;97.53;102885.47;5096006;28;20447;-72
2022/01/11 04:20:31;;;;;;;0.40;0.30;;;;;;;-0.14;97.51;102879.28;5095748;28;20443;-73
2022/01/11 04:22:57;;;;;;;0.40;0.30;;;;;;;-0.11;97.57;102888.78;5095628;28;20529;-73
2022/01/11 04:25:24;;;;;;;1.80;1.70;;;;;;;-0.11;97.00;102884.28;5095659;28;20448;-73
2022/01/11 04:27:50;;;;;;;0.50;0.50;;;;;;;-0.06;97.51;102887.25;5095669;28;20828;-73
2022/01/11 04:30:17;;;;;;;1.77;1.67;;;;;;;0.00;97.37;102893.75;5095497;28;20436;-73
2022/01/11 04:32:43;;;;;;;0.40;0.30;;;;;;;0.03;97.23;102895.22;5095420;28;20471;-73
2022/01/11 04:35:15;;;;;;;0.40;0.30;;;;;;;0.09;96.34;102895.38;5095739;28;20449;-72
2022/01/11 04:37:42;;;;;;;0.40;0.30;;;;;;;0.08;94.97;102888.34;5095421;28;20516;-72
2022/01/11 04:40:09;;;;;;;0.40;0.40;;;;;;;0.06;94.81;102890.38;5095373;28;20494;-73
2022/01/11 04:42:36;;;;;;;1.47;1.37;;;;;;;-0.02;94.51;102887.75;5095226;28;20472;-73
2022/01/11 04:45:03;;;;;;;0.40;0.30;;;;;;;-0.08;95.16;102883.94;5095256;28;20445;-73
2022/01/11 04:47:30;;;;;;;0.40;0.40;;;;;;;-0.11;95.26;102899.44;5095514;28;20444;-73
2022/01/11 04:49:56;;;;;;;0.40;0.30;;;;;;;-0.08;95.06;102889.28;5095335;28;20492;-73
2022/01/11 04:52:24;;;;;;;0.40;0.30;;;;;;;-0.08;95.11;102896.44;5095022;28;20464;-73
2022/01/11 04:54:50;;;;;;;0.77;0.77;;;;;;;-0.22;95.48;102902.47;5095320;28;20441;-73
2022/01/11 04:57:17;;;;;;;0.40;0.30;;;;;;;-0.20;95.93;102895.16;5095005;28;20432;-73
2022/01/11 04:59:43;;;;;;;0.40;0.30;;;;;;;-0.15;94.76;102903.44;5094962;28;20448;-72
2022/01/11 05:02:10;;;;;;;0.40;0.30;;;;;;;-0.13;95.06;102904.13;5094614;28;20605;-73
2022/01/11 05:04:36;;;;;;;0.40;0.30;;;;;;;-0.20;94.84;102897.81;5095179;28;20868;-72
2022/01/11 05:07:03;;;;;;;0.40;0.30;;;;;;;-0.23;94.75;102900.81;5096387;28;20809;-71
2022/01/11 05:09:31;;;;;;;0.40;0.30;;;;;;;-0.32;95.20;102903.50;5094756;28;20480;-73
2022/01/11 05:11:57;;;;;;;0.97;0.97;;;;;;;-0.29;95.91;102902.31;5094727;28;20444;-73
2022/01/11 05:14:24;;;;;;;0.40;0.30;;;;;;;-0.31;96.26;102910.50;5094737;28;20509;-73
2022/01/11 05:16:50;;;;;;;0.40;0.30;;;;;;;-0.26;97.42;102916.13;5094626;28;20800;-72
2022/01/11 05:19:17;;;;;;;0.40;0.30;;;;;;;-0.33;96.85;102917.81;5094656;28;20847;-73
2022/01/11 05:21:44;;;;;;;0.40;0.30;;;;;;;-0.22;96.87;102913.09;5093161;28;20937;-73
2022/01/11 05:24:11;;;;;;;0.70;0.70;;;;;;;-0.23;96.90;102911.47;5094482;28;20448;-73
2022/01/11 05:26:39;;;;;;;0.40;0.30;;;;;;;-0.27;96.92;102910.97;5094398;28;20453;-73
2022/01/11 05:29:05;;;;;;;0.40;0.30;;;;;;;-0.22;96.34;102913.09;5094076;28;20479;-73
2022/01/11 05:31:34;;;;;;;3.03;2.93;;;;;;;-0.22;96.66;102915.78;5094065;28;20444;-73
2022/01/11 05:34:00;;;;;;;0.40;0.30;;;;;;;-0.17;96.86;102921.44;5094250;28;20865;-75
2022/01/11 05:36:26;;;;;;;0.40;0.30;;;;;;;-0.18;96.57;102925.09;5093959;28;20443;-73
2022/01/11 05:38:53;;;;;;;4.47;4.10;;;;;;;-0.15;96.43;102924.75;5094227;28;20437;-73
2022/01/11 05:41:19;;;;;;;0.57;0.57;;;;;;;-0.14;96.30;102932.56;5094195;28;20452;-72
2022/01/11 05:43:47;;;;;;;1.00;1.00;;;;;;;-0.13;95.94;102931.56;5094310;28;20479;-73
2022/01/11 05:46:14;;;;;;;0.40;0.30;;;;;;;-0.18;96.01;102935.72;5094108;28;20480;-73
2022/01/11 05:48:44;;;;;;;0.47;0.40;;;;;;;-0.17;96.57;102940.91;5094047;28;20487;-73
2022/01/11 05:51:11;;;;;;;9.37;8.97;;;;;;;-0.19;96.32;102940.22;5094272;28;20439;-73
2022/01/11 05:53:37;;;;;;;0.40;0.30;;;;;;;-0.15;96.49;102946.06;5093787;28;20467;-73
2022/01/11 05:56:04;;;;;;;0.40;0.30;;;;;;;-0.20;96.72;102946.56;5093860;28;20441;-73
2022/01/11 05:58:31;;;;;;;0.40;0.30;;;;;;;-0.16;96.68;102950.56;5093591;28;20497;-73
2022/01/11 06:00:58;;;;;;;0.40;0.30;;;;;;;-0.11;96.38;102952.69;5093895;28;20473;-73
2022/01/11 06:03:25;;;;;;;0.40;0.30;;;;;;;-0.14;95.55;102948.53;5093588;28;20472;-73
2022/01/11 06:05:51;;;;;;;0.40;0.30;;;;;;;-0.17;94.94;102942.75;5093831;28;20447;-73
2022/01/11 06:08:18;;;;;;;0.40;0.30;;;;;;;-0.26;96.03;102948.09;5093716;28;20554;-74
2022/01/11 06:10:45;;;;;;;0.53;0.50;;;;;;;-0.29;96.35;102955.59;5093594;28;20477;-73
2022/01/11 06:13:12;;;;;;;9.20;8.60;;;;;;;-0.28;96.02;102950.06;5093319;28;20521;-71
2022/01/11 06:15:39;;;;;;;0.40;0.30;;;;;;;-0.32;97.28;102955.91;5093633;28;20451;-73
2022/01/11 06:18:07;;;;;;;0.50;0.50;;;;;;;-0.24;96.38;102952.41;5093275;28;20447;-73
2022/01/11 06:20:33;;;;;;;0.40;0.30;;;;;;;-0.21;95.83;102957.41;5093575;28;20480;-74
2022/01/11 06:23:00;;;;;;;0.40;0.30;;;;;;;-0.15;95.92;102952.22;5093426;28;20456;-74
2022/01/11 06:25:26;;;;;;;12.63;12.03;;;;;;;-0.13;95.12;102955.56;5093468;28;20452;-73
2022/01/11 06:27:53;;;;;;;0.70;0.70;;;;;;;-0.16;95.97;102960.38;5093462;28;20474;-73
2022/01/11 06:30:20;;;;;;;0.40;0.30;;;;;;;-0.15;95.57;102956.72;5093361;28;20537;-74
2022/01/11 06:32:47;;;;;;;0.40;0.30;;;;;;;-0.14;95.25;102958.38;5093098;28;20517;-73
2022/01/11 06:35:17;;;;;;;4.50;4.30;;;;;;;-0.13;95.27;102960.03;5093188;28;20918;-74
2022/01/11 06:37:44;;;;;;;0.40;0.30;;;;;;;-0.16;95.24;102957.72;5093470;28;20467;-72
2022/01/11 06:40:11;;;;;;;0.40;0.30;;;;;;;-0.15;95.15;102959.38;5093328;28;20528;-72
2022/01/11 06:42:38;;;;;;;0.40;0.30;;;;;;;-0.17;95.87;102964.06;5092704;28;20464;-69
2022/01/11 06:45:06;;;;;;;0.40;0.30;;;;;;;-0.18;95.85;102965.03;5093162;28;20443;-69
2022/01/11 06:47:33;;;;;;;0.40;0.30;;;;;;;-0.18;95.58;102967.69;5093267;28;20447;-73
2022/01/11 06:49:59;;;;;;;0.40;0.30;;;;;;;-0.17;96.08;102970.22;5093154;28;20488;-71
2022/01/11 06:52:27;;;;;;;0.40;0.30;;;;;;;-0.21;95.78;102974.22;5093185;28;20862;-70
2022/01/11 06:54:53;;;;;;;0.40;0.30;;;;;;;-0.18;95.51;102971.19;5092928;28;20440;-69
2022/01/11 06:57:20;;;;;;;0.40;0.30;;;;;;;-0.17;95.09;102972.88;5093242;28;20515;-71
2022/01/11 06:59:46;;;;;;;0.40;0.30;;;;;;;-0.17;95.55;102988.84;5093175;28;20441;-70
2022/01/11 07:02:13;;;;;;;0.40;0.30;;;;;;;-0.19;95.77;102993.50;5092846;28;20547;-69
2022/01/11 07:04:39;;;;;;;2.20;2.10;;;;;;;-0.10;96.07;102994.31;5092885;28;20424;-71
2022/01/11 07:07:07;;;;;;;0.70;0.70;;;;;;;-0.14;96.06;102995.66;5093114;28;20440;-68
2022/01/11 07:09:35;;;;;;;0.40;0.30;;;;;;;-0.14;96.15;102993.81;5093053;28;20852;-70
2022/01/11 07:12:02;;;;;;;0.40;0.30;;;;;;;-0.12;96.58;102993.66;5092682;28;21086;-72
2022/01/11 07:14:29;;;;;;;0.40;0.30;;;;;;;-0.09;96.17;102998.63;5092793;28;20440;-72
2022/01/11 07:16:55;;;;;;;0.80;0.80;;;;;;;-0.10;95.24;102997.81;5092992;28;20452;-73
2022/01/11 07:19:22;;;;;;;0.40;0.30;;;;;;;-0.17;94.61;103001.34;5092982;28;20445;-73
2022/01/11 07:21:49;;;;;;;0.40;0.30;;;;;;;-0.20;95.04;103004.31;5092781;28;20440;-73
2022/01/11 07:24:16;;;;;;;0.40;0.30;;;;;;;-0.18;95.34;103008.47;5092832;28;20441;-73
2022/01/11 07:26:44;;;;;;;0.40;0.30;;;;;;;-0.23;95.53;103009.97;5092888;28;20448;-74
2022/01/11 07:29:11;;;;;;;0.40;0.30;;;;;;;-0.18;96.27;103019.13;5092779;28;20484;-72
2022/01/11 07:31:40;;;;;;;0.40;0.30;;;;;;;-0.12;95.56;103020.28;5092418;28;20975;-73
2022/01/11 07:34:07;;;;;;;0.40;0.30;;;;;;;-0.18;96.05;103023.63;5092458;28;20878;-73
2022/01/11 07:36:33;;;;;;;0.40;0.30;;;;;;;-0.15;95.81;103028.63;5093103;28;20443;-73
2022/01/11 07:39:00;;;;;;;0.40;0.30;;;;;;;-0.10;94.81;103035.09;5092771;28;20441;-73
2022/01/11 07:41:27;;;;;;;2.00;1.90;;;;;;;-0.14;94.55;103035.59;5092761;28;20444;-72
2022/01/11 07:43:54;;;;;;;0.40;0.30;;;;;;;-0.27;95.73;103033.44;5093248;28;20810;-73
2022/01/11 07:46:21;;;;;;;0.40;0.30;;;;;;;-0.27;95.47;103044.09;5096350;28;20444;-73
2022/01/11 07:48:48;;;;;;;0.40;0.30;;;;;;;-0.25;95.70;103039.47;5096386;28;20440;-72
2022/01/11 07:51:14;;;;;;;0.40;0.30;;;;;;;-0.22;95.31;103046.25;5096269;28;20488;-74
2022/01/11 07:53:41;;;;;;;0.40;0.30;;;;;;;-0.21;95.50;103047.94;5096242;28;20467;-74
2022/01/11 07:56:07;;;;;;;0.40;0.30;;;;;;;-0.21;96.26;103050.59;5096224;28;20440;-75
2022/01/11 07:58:34;;;;;;;0.40;0.30;;;;;;;-0.14;95.76;103044.41;5096186;28;20463;-75
2022/01/11 08:01:01;;;;;;;9.10;8.40;;;;;;;-0.11;95.38;103052.09;5095868;28;20935;-75
2022/01/11 08:03:28;;;;;;;0.40;0.30;;;;;;;-0.12;94.21;103046.94;5095653;28;20479;-73
2022/01/11 08:05:54;;;;;;;10.13;9.33;;;;;;;-0.20;94.15;103052.25;5096044;28;20440;-76
2022/01/11 08:08:21;;;;;;;3.97;3.73;;;;;;;-0.23;94.37;103050.75;5095329;28;20456;-71
2022/01/11 08:10:47;;;;;;;1.83;1.73;;;;;;;-0.21;95.01;103053.28;5096004;28;20888;-71
2022/01/11 08:13:15;;;;;;;2.23;2.13;;;;;;;-0.26;94.96;103054.59;5095822;28;20460;-73
2022/01/11 08:15:42;;;;;;;0.40;0.30;;;;;;;-0.24;95.67;103053.59;5095453;28;20881;-71
2022/01/11 08:18:10;;;;;;;2.10;2.00;;;;;;;-0.23;95.71;103049.94;5095830;28;20440;-72
2022/01/11 08:20:36;;;;;;;0.40;0.30;;;;;;;-0.13;95.14;103055.94;5095298;28;20455;-72
2022/01/11 08:23:03;;;;;;;0.40;0.30;;;;;;;-0.14;95.08;103054.25;5095742;28;20471;-72
2022/01/11 08:25:29;;;;;;;0.40;0.30;;;;;;;-0.18;95.05;103058.25;5095676;28;20437;-72
2022/01/11 08:27:56;;;;;;;0.40;0.30;;;;;;;-0.15;95.82;103060.56;5095662;28;20451;-72
2022/01/11 08:30:23;;;;;;;0.40;0.30;;;;;;;-0.12;95.64;103060.25;5095498;28;20997;-71
2022/01/11 08:32:49;;;;;;;0.40;0.30;;;;;;;-0.10;95.24;103063.56;5095448;28;20514;-72
2022/01/11 08:35:17;;;;;;;0.40;0.30;;;;;;;0.07;94.51;103065.19;5095507;28;20453;-72
2022/01/11 08:37:43;;;;;;;0.40;0.30;;;;;;;0.13;95.10;103072.50;5095450;28;20444;-72
2022/01/11 08:40:12;;;;;;;0.40;0.30;;;;;;;0.14;95.14;103076.84;5095414;28;20433;-72
2022/01/11 08:42:38;;;;;;;0.40;0.30;;;;;;;0.22;95.05;103076.84;5095347;28;20457;-74
2022/01/11 08:45:07;;;;;;;0.40;0.30;;;;;;;0.30;94.32;103075.13;5095026;28;20921;-72
2022/01/11 08:47:35;;;;;;;8.03;7.43;;;;;;;0.33;93.88;103082.81;5095263;28;20445;-72
2022/01/11 08:50:02;;;;;;;0.50;0.50;;;;;;;0.35;93.49;103086.13;5094990;28;20545;-72
2022/01/11 08:52:31;;;;;;;0.40;0.30;;;;;;;0.29;93.92;103086.81;5094833;28;20460;-73
2022/01/11 08:54:58;;;;;;;0.40;0.30;;;;;;;0.30;93.97;103088.47;5095128;28;20528;-72
2022/01/11 08:57:24;;;;;;;0.50;0.40;;;;;;;0.33;93.91;103083.63;5094888;28;20470;-72
2022/01/11 08:59:51;;;;;;;0.40;0.30;;;;;;;0.39;93.56;103087.44;5094975;28;20443;-73
2022/01/11 09:02:20;;;;;;;0.40;0.30;;;;;;;0.36;92.95;103077.97;5094417;28;20997;-71
2022/01/11 09:04:47;;;;;;;0.40;0.30;;;;;;;0.37;93.07;103073.47;5094843;28;20437;-72
2022/01/11 09:07:14;;;;;;;14.00;13.20;;;;;;;0.38;93.04;103080.44;5094837;28;20447;-71
2022/01/11 09:09:42;;;;;;;0.40;0.30;;;;;;;0.40;92.44;103076.63;5094643;28;20511;-73
2022/01/11 09:12:12;;;;;;;0.40;0.30;;;;;;;0.39;92.49;103079.44;5094696;28;20467;-72
2022/01/11 09:14:40;;;;;;;0.40;0.30;;;;;;;0.35;93.31;103078.13;5094758;28;20486;-72
2022/01/11 09:17:07;;;;;;;0.40;0.40;;;;;;;0.37;93.35;103084.13;5094695;28;20497;-73
2022/01/11 09:19:34;;;;;;;0.60;0.43;;;;;;;0.33;92.87;103080.97;5094323;28;20943;-72
2022/01/11 09:22:01;;;;;;;0.40;0.30;;;;;;;0.30;93.40;103091.13;5094728;28;20444;-73
2022/01/11 09:24:29;;;;;;;0.40;0.30;;;;;;;0.27;93.72;103089.66;5094305;28;20433;-71
2022/01/11 09:26:58;;;;;;;0.40;0.30;;;;;;;0.35;93.27;103083.44;5094429;28;20539;-72
2022/01/11 09:29:25;;;;;;;3.37;3.07;;;;;;;0.42;93.11;103100.44;5094160;28;20444;-72
2022/01/11 09:31:53;;;;;;;0.40;0.30;;;;;;;0.45;92.17;103087.59;5094219;28;20480;-72
2022/01/11 09:34:19;;;;;;;0.40;0.30;;;;;;;0.47;92.44;103095.41;5094368;28;20885;-72
2022/01/11 09:36:46;;;;;;;0.40;0.30;;;;;;;0.44;92.12;103090.41;5094245;28;20501;-73
2022/01/11 09:39:12;;;;;;;0.53;0.53;;;;;;;0.44;92.49;103090.41;5094285;28;20439;-72
2022/01/11 09:41:39;;;;;;;0.40;0.30;;;;;;;0.42;92.38;103092.44;5094298;28;20440;-73
2022/01/11 09:44:07;;;;;;;1.10;1.07;;;;;;;0.42;91.74;103087.94;5094098;28;20525;-72
2022/01/11 09:46:34;;;;;;;0.50;0.30;;;;;;;0.46;92.16;103089.25;5093844;28;20930;-72
2022/01/11 09:49:01;;;;;;;0.40;0.30;;;;;;;0.49;91.08;103082.75;5094106;28;20448;-72
2022/01/11 09:51:27;;;;;;;0.40;0.30;;;;;;;0.41;91.21;103088.13;5093891;28;20479;-72
2022/01/11 09:53:54;;;;;;;2.63;2.53;;;;;;;0.38;91.63;103085.78;5093946;28;20559;-73
2022/01/11 09:56:20;;;;;;;0.40;0.30;;;;;;;0.38;91.03;103086.63;5093876;28;20447;-72
2022/01/11 09:58:47;;;;;;;0.40;0.30;;;;;;;0.31;91.75;103085.66;5093946;28;20448;-72
2022/01/11 10:01:15;;;;;;;0.40;0.30;;;;;;;0.36;91.62;103082.47;5093567;28;20930;-72
2022/01/11 10:03:57;;;;;;;2.00;1.90;;;;;;;0.38;91.13;103085.78;5093648;28;20468;-73
2022/01/11 10:06:25;;;;;;;2.10;2.00;;;;;;;0.40;91.28;103083.75;5093403;28;20420;-72
2022/01/11 10:08:51;;;;;;;0.40;0.30;;;;;;;0.38;91.24;103085.78;5093570;28;20444;-72
2022/01/11 10:11:34;;;;;;;0.40;0.40;;;;;;;0.43;92.19;103086.91;5093309;28;20854;-72
2022/01/11 10:14:17;;;;;;;0.40;0.30;;;;;;;0.55;92.20;103086.56;5093406;28;20456;-71
2022/01/11 10:16:45;;;;;;;0.60;0.60;;;;;;;0.50;91.38;103079.09;5093673;28;20460;-73
2022/01/11 10:19:25;;;;;;;0.70;0.70;;;;;;;0.53;90.64;103085.88;5093667;28;20448;-72
2022/01/11 10:21:54;;;;;;;0.50;0.30;;;;;;;0.60;90.74;103085.03;5093524;28;20420;-73
2022/01/11 10:24:23;;;;;;;0.40;0.30;;;;;;;0.61;90.02;103084.03;5093588;28;20909;-72
2022/01/11 10:26:49;;;;;;;0.40;0.30;;;;;;;0.47;89.30;103090.91;5093485;28;20447;-74
2022/01/11 10:29:28;;;;;;;0.60;0.60;;;;;;;0.60;89.92;103084.22;5093707;28;20455;-72
2022/01/11 10:31:58;;;;;;;9.30;8.60;;;;;;;0.62;89.25;103087.53;5093259;28;20484;-72
2022/01/11 10:34:31;;;;;;;2.10;1.90;;;;;;;0.64;89.56;103090.88;5093340;28;20497;-72
2022/01/11 10:36:58;;;;;;;0.40;0.30;;;;;;;0.66;89.65;103092.34;5093295;28;20447;-72
2022/01/11 10:39:29;;;;;;;0.40;0.30;;;;;;;0.62;89.93;103084.84;5093209;28;20441;-71
2022/01/11 10:41:57;;;;;;;0.40;0.30;;;;;;;0.61;90.46;103092.03;5093178;28;20436;-70
2022/01/11 10:44:51;;;;;;;0.40;0.30;;;;;;;0.66;90.69;103081.66;5093096;28;20479;-74
2022/01/11 10:47:28;;;;;;;0.40;0.30;;;;;;;0.77;90.25;103084.97;5093183;28;20432;-72
2022/01/11 10:50:00;;;;;;;0.40;0.30;;;;;;;0.83;89.82;103076.28;5093123;28;20840;-73
2022/01/11 10:52:31;;;;;;;0.40;0.30;;;;;;;0.83;88.88;103073.59;5092132;28;20988;-74
2022/01/11 10:54:58;;;;;;;0.40;0.30;;;;;;;0.86;89.22;103073.25;5092946;28;20901;-74
2022/01/11 10:57:27;;;;;;;1.77;1.67;;;;;;;0.92;89.02;103075.22;5093226;28;20436;-73
2022/01/11 11:00:14;;;;;;;0.40;0.30;;;;;;;0.93;88.10;103074.22;5093370;28;20441;-74
2022/01/11 11:02:46;;;;;;;0.40;0.30;;;;;;;0.83;88.67;103076.28;5092974;28;20480;-75
2022/01/11 11:05:15;;;;;;;1.40;1.30;;;;;;;0.78;87.97;103081.28;5093133;28;20436;-74
2022/01/11 11:07:43;;;;;;;0.40;0.30;;;;;;;0.79;88.08;103077.63;5094463;28;20445;-74
2022/01/11 11:10:10;;;;;;;1.50;1.40;;;;;;;0.79;88.65;103085.63;5093026;28;20448;-74
2022/01/11 11:12:36;;;;;;;0.40;0.40;;;;;;;0.80;88.80;103080.13;5093035;28;20547;-75
2022/01/11 11:15:05;;;;;;;0.40;0.30;;;;;;;0.81;89.48;103081.78;5093225;28;20459;-74
2022/01/11 11:17:34;;;;;;;0.40;0.30;;;;;;;0.83;88.75;103084.28;5092706;28;20501;-74
2022/01/11 11:20:04;;;;;;;1.17;1.07;;;;;;;0.83;87.99;103081.59;5095216;28;20964;-75
2022/01/11 11:22:31;;;;;;;0.40;0.30;;;;;;;0.79;87.63;103089.13;5096829;28;20471;-75
2022/01/11 11:24:58;;;;;;;0.40;0.30;;;;;;;0.71;88.69;103084.66;5096883;28;20440;-74
2022/01/11 11:27:28;;;;;;;0.40;0.30;;;;;;;0.64;89.33;103088.19;5096678;28;20439;-74
2022/01/11 11:29:55;;;;;;;0.40;0.30;;;;;;;0.72;89.04;103083.66;5096721;28;20448;-74
2022/01/11 11:32:22;;;;;;;0.40;0.30;;;;;;;0.79;89.46;103089.13;5096721;28;20480;-74
2022/01/11 11:34:50;;;;;;;0.40;0.30;;;;;;;0.73;88.96;103085.31;5096383;28;20807;-75